Aérodrome :
LOGIN :

S'inscrire | Disclaimer

   EN    FR    IT 

 










Légende :    VFR   VFR Marginal   IFR   IFR Intensif   IFR Très Intensif
Visi : 
Plafond : 
>= 8 km
>= 3000ft
5 à 8 km
1000 à 3000 ft
1500m à 5 km
500 à 1000 ft
800 à 1500m
200 à 500 ft
< 800m
< 200 ft
Symboles :   Orages  Brouillard  Fortes neiges  Fortes précipitations  Vent > 20 kt
SIGMETs :   Divers  Orages  Givrage  Turbulence  Onde Orograph.  Cendres Volcan.







- Altitude de l'aérodrome : 276 ft
- Code IATA : RBA


GMME - Rabat

DERNIER METAR :
  • 241630Z 36009KT 9999 FEW020 SCT100 24/08 Q1013 NOSIG

METARs EXPIRÉS :
  • 241600Z 35007KT 320V020 9999 FEW020 SCT100 24/06 Q1013 NOSIG
  • 241530Z 33008KT 300V020 9999 FEW020 SCT100 24/06 Q1013 NOSIG
  • 241500Z 34010KT 9999 FEW020 SCT100 24/06 Q1013 NOSIG
  • 241430Z 35009KT 320V020 9999 FEW020 SCT100 25/05 Q1013 NOSIG
  • 241400Z 35009KT 320V020 8000 FEW020 SCT080 25/04 Q1013 NOSIG

TAF TAF GMME
Valide du 24 à 12h jusqu'au 25 à 18h UTC


241100Z 2412/2518 36010KT 8000 SCT020 SCT100
TEMPO 2418/2424 VRB02KT CAVOK
BECMG 2502/2506 14004KT
Pas de NOTAMs connus pour ce terrain.
1 SIGMET publié pour la FIR Casablanca (GMMM) :
 
Orages noyés dans la masse
GMMM SIGMET 03 VALID 241440/241800 GMMC
GMMM CASABLANCA FIR EMBD TS FCST N OF LINE N3516 W00319 - N3505 W004 56 - N3542 W00519 TOP FL250 STNR WKN=



MET'MAP, la Météo Aéronautique d'un coup d'oeil ! - Copyright ORBIFLY Décembre 2007 - Disclaimer

ORBIFLY MET'MAP TEAM :

Programmation & Développement : Alexandra Zaïnal
Conception & Développement : Baudouin d'Aumeries
Co-Programmation & Développement : Marc-Olivier Méhu
Soutien technique & logistique : Manuel Goepfert

Contact : metmap@orbifly.com




SOURCES & CREDITS :

   NOAA